Time;durP1;ratioP1;P1;durP2;ratioP2;P2;SDS_P1;SDS_P2;PMS_P1;PMS_P2;Temp;Humidity;BMP_temperature;BMP_pressure;BME280_temperature;BME280_humidity;BME280_pressure;Samples;Min_cycle;Max_cycle;Signal;HPM_P1;HPM_P2
2021/11/12 00:14:07;;;;;;;128.38;60.30;;;6.30;99.90;;;;;;4982402;28;20053;-96
2021/11/12 00:16:34;;;;;;;137.52;66.10;;;6.20;99.90;;;;;;4976878;28;20078;-96
2021/11/12 00:19:00;;;;;;;121.35;57.50;;;6.10;99.90;;;;;;4976008;28;20083;-96
2021/11/12 00:21:26;;;;;;;237.18;98.65;;;6.20;99.90;;;;;;4979058;28;20046;-96
2021/11/12 00:23:51;;;;;;;77.70;37.45;;;6.20;99.90;;;;;;4976383;28;20086;-96
2021/11/12 00:26:17;;;;;;;151.55;69.95;;;6.30;99.90;;;;;;4976644;28;20504;-96
2021/11/12 00:28:58;;;;;;;143.00;64.97;;;6.70;99.90;;;;;;4976202;28;20042;-96
2021/11/12 00:31:30;;;;;;;304.45;134.45;;;6.20;99.90;;;;;;4978018;28;20059;-96
2021/11/12 00:39:17;;;;;;;77.03;35.58;;;6.20;99.90;;;;;;4977482;28;20519;-96
2021/11/12 00:42:01;;;;;;;81.93;29.90;;;6.50;99.90;;;;;;4978970;28;20035;-96
2021/11/12 00:50:30;;;;;;;75.03;32.88;;;6.20;99.90;;;;;;4976182;28;20031;-96
2021/11/12 00:55:24;;;;;;;91.78;51.17;;;6.10;99.90;;;;;;4978573;28;20066;-96
2021/11/12 00:57:50;;;;;;;67.10;32.90;;;6.30;99.90;;;;;;4975990;28;20046;-96
2021/11/12 01:00:17;;;;;;;50.92;26.77;;;6.10;99.90;;;;;;4991009;28;20041;-96
2021/11/12 01:02:43;;;;;;;46.22;24.08;;;6.10;99.90;;;;;;4994690;28;20026;-96
2021/11/12 01:05:09;;;;;;;91.03;49.40;;;6.60;99.90;;;;;;4979109;28;20041;-96
2021/11/12 01:07:36;;;;;;;138.02;70.20;;;6.20;99.90;;;;;;4995174;28;20034;-96
2021/11/12 01:10:04;;;;;;;61.42;31.92;;;6.10;99.90;;;;;;4995541;28;20030;-96
2021/11/12 01:12:30;;;;;;;57.63;31.33;;;6.20;99.90;;;;;;4992861;28;20023;-96
2021/11/12 01:14:56;;;;;;;54.03;24.20;;;6.60;99.90;;;;;;4995604;28;20563;-96
2021/11/12 01:17:23;;;;;;;45.22;24.13;;;6.20;99.90;;;;;;4977698;28;20031;-96
2021/11/12 01:19:49;;;;;;;53.33;27.85;;;6.10;99.90;;;;;;4994883;28;20057;-96
2021/11/12 01:22:14;;;;;;;118.05;64.60;;;6.10;99.90;;;;;;4996587;28;20479;-96
2021/11/12 01:24:40;;;;;;;69.60;23.60;;;6.00;99.90;;;;;;5011392;28;20464;-96
2021/11/12 01:27:07;;;;;;;49.75;22.58;;;5.80;99.90;;;;;;5017191;28;20108;-96
2021/11/12 01:29:35;;;;;;;51.92;24.45;;;5.90;99.90;;;;;;5016352;28;20041;-96
2021/11/12 01:34:51;;;;;;;58.63;31.60;;;5.80;99.90;;;;;;5017437;28;20084;-96
2021/11/12 01:37:22;;;;;;;41.50;22.55;;;5.90;99.90;;;;;;5000740;28;20022;-96
2021/11/12 01:39:53;;;;;;;38.92;19.05;;;5.90;99.90;;;;;;5015216;28;20034;-96
2021/11/12 01:42:21;;;;;;;43.33;19.88;;;6.00;99.90;;;;;;5015634;28;20025;-96
2021/11/12 01:44:52;;;;;;;49.10;27.25;;;5.90;99.90;;;;;;4997899;28;20022;-96
2021/11/12 01:47:29;;;;;;;44.38;20.90;;;6.00;99.90;;;;;;5016718;28;20033;-96
2021/11/12 01:49:58;;;;;;;52.22;23.20;;;6.30;99.90;;;;;;4998507;28;20040;-96
2021/11/12 01:55:08;;;;;;;40.95;21.33;;;5.80;99.90;;;;;;5015753;28;20073;-96
2021/11/12 01:57:48;;;;;;;44.67;22.15;;;5.90;99.90;;;;;;5016390;28;20030;-96
2021/11/12 02:00:18;;;;;;;40.95;21.15;;;6.30;99.90;;;;;;5027267;28;20057;-96
2021/11/12 02:02:44;;;;;;;43.90;20.98;;;6.60;99.90;;;;;;5032800;28;20029;-96
2021/11/12 02:05:10;;;;;;;53.10;21.98;;;5.90;99.90;;;;;;5018543;28;20040;-96
2021/11/12 02:07:37;;;;;;;47.03;21.85;;;5.80;99.90;;;;;;5026867;28;20033;-96
2021/11/12 02:10:18;;;;;;;61.03;22.00;;;6.40;99.90;;;;;;5028940;28;20025;-96
2021/11/12 02:15:30;;;;;;;47.08;22.10;;;5.90;99.90;;;;;;5021313;28;20121;-96
2021/11/12 02:18:07;;;;;;;45.47;23.67;;;6.40;99.90;;;;;;5050640;28;20048;-96
2021/11/12 02:20:43;;;;;;;69.30;23.50;;;6.20;99.90;;;;;;5049142;28;20552;-96
2021/11/12 02:23:10;;;;;;;44.97;22.15;;;6.00;99.90;;;;;;5045986;28;20032;-96
2021/11/12 02:25:41;;;;;;;48.38;21.77;;;6.00;99.90;;;;;;5045289;28;20033;-96
2021/11/12 02:28:18;;;;;;;44.00;23.27;;;6.40;99.90;;;;;;5037043;28;20025;-96
2021/11/12 02:30:48;;;;;;;42.80;22.23;;;6.20;99.90;;;;;;5028845;28;20036;-96
2021/11/12 02:33:17;;;;;;;41.00;22.73;;;5.90;99.90;;;;;;5019334;28;20032;-96
2021/11/12 02:36:06;;;;;;;46.22;23.05;;;6.20;99.90;;;;;;5032755;28;20029;-96
2021/11/12 02:38:39;;;;;;;42.97;22.95;;;6.00;99.90;;;;;;5046770;28;20029;-96
2021/11/12 02:41:05;;;;;;;43.90;23.58;;;6.00;99.90;;;;;;5047933;28;20105;-96
2021/11/12 02:43:32;;;;;;;52.75;23.17;;;6.10;99.90;;;;;;5039250;28;20030;-96
2021/11/12 02:46:01;;;;;;;55.63;23.45;;;6.00;99.90;;;;;;5036512;28;20033;-95
2021/11/12 02:48:27;;;;;;;45.13;22.55;;;5.90;99.90;;;;;;5048610;28;20028;-96
2021/11/12 02:50:54;;;;;;;41.90;21.50;;;5.90;99.90;;;;;;5016597;28;20025;-96
2021/11/12 02:53:20;;;;;;;41.70;22.77;;;5.90;99.90;;;;;;5046305;28;20033;-96
2021/11/12 02:55:45;;;;;;;46.47;22.67;;;5.80;99.90;;;;;;5045255;28;20500;-96
2021/11/12 02:58:13;;;;;;;43.20;21.48;;;6.10;99.90;;;;;;5028527;28;20460;-96
2021/11/12 03:00:41;;;;;;;47.60;21.60;;;5.90;99.90;;;;;;5028942;28;20437;-96
2021/11/12 03:03:07;;;;;;;42.88;21.98;;;5.80;99.90;;;;;;5032128;28;20032;-96
2021/11/12 03:05:34;;;;;;;50.80;23.00;;;5.80;99.90;;;;;;5016281;28;20108;-96
2021/11/12 03:08:00;;;;;;;44.65;22.35;;;5.70;99.90;;;;;;5044615;28;20029;-96
2021/11/12 03:10:26;;;;;;;42.33;21.95;;;6.30;99.90;;;;;;5045704;28;20029;-96
2021/11/12 03:12:52;;;;;;;43.72;20.77;;;5.90;99.90;;;;;;5029541;28;20021;-96
2021/11/12 03:15:18;;;;;;;41.60;20.88;;;5.90;99.90;;;;;;5049507;28;20041;-96
2021/11/12 03:17:47;;;;;;;41.67;21.88;;;5.90;99.90;;;;;;5050222;28;20366;-96
2021/11/12 03:20:15;;;;;;;39.22;19.58;;;5.90;99.90;;;;;;5045672;28;20021;-96
2021/11/12 03:25:38;;;;;;;43.25;19.90;;;5.90;99.90;;;;;;5039025;28;20116;-95
2021/11/12 03:28:21;;;;;;;44.60;20.30;;;6.50;99.90;;;;;;5048435;28;20028;-96
2021/11/12 04:00:45;;;;;;;36.05;18.40;;;5.90;99.90;;;;;;5029831;28;20084;-96
2021/11/12 04:19:44;;;;;;;38.65;19.65;;;6.20;99.90;;;;;;4986272;28;20565;-96
2021/11/12 04:49:34;;;;;;;37.33;18.67;;;5.70;99.90;;;;;;5030635;28;20036;-96
2021/11/12 05:49:42;;;;;;;32.72;15.35;;;5.90;99.90;;;;;;4937174;29;20194;-96
2021/11/12 05:52:14;;;;;;;31.75;15.70;;;5.50;99.90;;;;;;4964159;28;20035;-95
2021/11/12 05:57:24;;;;;;;31.58;16.17;;;5.50;99.90;;;;;;4963095;28;20091;-96
2021/11/12 05:59:50;;;;;;;28.77;15.38;;;5.60;99.90;;;;;;4958849;28;20043;-95
2021/11/12 06:02:16;;;;;;;47.45;17.15;;;5.70;99.90;;;;;;4931995;28;20031;-96
2021/11/12 06:04:42;;;;;;;35.67;14.73;;;5.70;99.90;;;;;;4946137;28;20039;-96
2021/11/12 06:07:08;;;;;;;30.83;15.55;;;5.70;99.90;;;;;;4945814;28;20110;-95
2021/11/12 06:09:35;;;;;;;37.03;15.95;;;5.60;99.90;;;;;;4949694;28;20118;-96
2021/11/12 06:12:01;;;;;;;33.65;15.77;;;5.80;99.90;;;;;;4936935;28;20032;-96
2021/11/12 06:14:27;;;;;;;26.35;14.57;;;5.90;99.90;;;;;;4949647;28;20047;-95
2021/11/12 06:16:53;;;;;;;27.98;14.57;;;5.70;99.90;;;;;;4948788;28;20074;-96
2021/11/12 06:19:20;;;;;;;30.63;15.02;;;5.60;99.90;;;;;;5021659;28;20041;-96
2021/11/12 06:21:46;;;;;;;35.38;14.60;;;5.60;99.90;;;;;;5005823;28;20050;-96
2021/11/12 06:24:12;;;;;;;32.08;15.73;;;5.70;99.90;;;;;;5014948;28;20065;-96
2021/11/12 06:26:39;;;;;;;36.63;16.55;;;5.70;99.90;;;;;;4997602;28;20029;-96
2021/11/12 06:29:06;;;;;;;29.60;15.93;;;5.70;99.90;;;;;;5025872;28;20024;-95
2021/11/12 06:31:32;;;;;;;32.50;15.43;;;5.70;99.90;;;;;;5025629;28;20033;-95
2021/11/12 06:33:57;;;;;;;34.15;15.38;;;5.90;99.90;;;;;;5026296;28;20045;-95
2021/11/12 06:36:25;;;;;;;34.60;16.05;;;6.00;99.90;;;;;;5030486;28;20033;-95
2021/11/12 06:38:52;;;;;;;56.65;15.32;;;5.70;99.90;;;;;;5030155;28;20497;-95
2021/11/12 06:41:28;;;;;;;34.03;15.90;;;6.10;99.90;;;;;;5027291;28;20029;-95
2021/11/12 06:43:59;;;;;;;27.95;14.55;;;5.60;99.90;;;;;;5008301;28;20116;-96
2021/11/12 06:49:30;;;;;;;33.58;15.18;;;5.70;99.90;;;;;;5026155;28;20059;-96
2021/11/12 06:51:56;;;;;;;57.70;16.13;;;5.70;99.90;;;;;;5026054;28;20471;-96
2021/11/12 06:54:22;;;;;;;32.92;15.95;;;6.00;99.90;;;;;;5029128;28;20037;-95
2021/11/12 06:56:48;;;;;;;30.88;14.32;;;5.60;99.90;;;;;;5012878;28;20192;-96
2021/11/12 06:59:15;;;;;;;28.63;16.23;;;6.10;99.90;;;;;;5018074;28;20513;-96
2021/11/12 07:01:41;;;;;;;28.80;15.82;;;5.70;99.90;;;;;;5045603;28;20036;-95
2021/11/12 07:04:06;;;;;;;32.08;16.70;;;5.70;99.90;;;;;;5054324;28;20304;-95
2021/11/12 07:06:35;;;;;;;34.03;16.23;;;5.70;99.90;;;;;;5048578;28;20113;-96
2021/11/12 07:09:00;;;;;;;31.73;17.88;;;5.80;99.90;;;;;;5019068;28;20099;-93
2021/11/12 07:11:26;;;;;;;36.60;19.30;;;5.80;99.90;;;;;;5033808;28;20022;-92
2021/11/12 07:13:52;;;;;;;27.13;14.38;;;6.30;99.90;;;;;;5017235;28;20399;-93
2021/11/12 07:16:18;;;;;;;24.88;14.82;;;5.70;99.90;;;;;;5041540;28;20053;-92
2021/11/12 07:18:44;;;;;;;25.02;14.00;;;5.70;99.90;;;;;;5029949;28;20029;-92
2021/11/12 07:21:10;;;;;;;25.63;12.98;;;5.70;99.90;;;;;;5020931;28;20060;-96
2021/11/12 07:23:35;;;;;;;30.98;14.18;;;5.70;99.90;;;;;;5036704;28;20033;-96
2021/11/12 07:26:01;;;;;;;48.25;13.60;;;5.60;99.90;;;;;;5051160;28;20033;-95
2021/11/12 07:28:27;;;;;;;61.80;15.02;;;5.60;99.90;;;;;;5044081;28;20025;-94
2021/11/12 07:30:55;;;;;;;51.83;14.85;;;5.50;99.90;;;;;;5043199;28;20078;-94
2021/11/12 07:33:21;;;;;;;61.60;15.10;;;5.80;99.90;;;;;;5053941;28;20070;-94
2021/11/12 07:36:00;;;;;;;52.65;14.82;;;5.50;99.90;;;;;;5055220;28;20493;-95
2021/11/12 07:38:46;;;;;;;69.18;18.65;;;5.60;99.90;;;;;;5035012;28;20026;-95
2021/11/12 07:49:05;;;;;;;55.60;29.48;;;5.70;99.90;;;;;;5039814;28;20030;-92
2021/11/12 07:51:31;;;;;;;53.30;23.00;;;5.70;99.90;;;;;;5032822;28;20025;-89
2021/11/12 07:53:57;;;;;;;26.52;14.27;;;5.70;99.90;;;;;;5037477;28;20057;-90
2021/11/12 07:56:24;;;;;;;20.40;11.25;;;5.70;99.90;;;;;;5047349;28;20135;-90
2021/11/12 07:58:49;;;;;;;17.55;10.98;;;5.80;99.90;;;;;;5031315;28;20045;-90
2021/11/12 08:01:15;;;;;;;20.10;11.02;;;5.70;99.90;;;;;;5049856;28;20028;-96
2021/11/12 08:03:43;;;;;;;14.55;9.32;;;6.10;99.90;;;;;;5031377;28;20029;-91
2021/11/12 08:06:12;;;;;;;21.38;11.05;;;5.90;99.90;;;;;;5052886;28;20025;-91
2021/11/12 08:08:39;;;;;;;18.35;11.00;;;6.30;99.90;;;;;;5051364;28;20032;-92
2021/11/12 08:11:15;;;;;;;16.42;9.88;;;6.10;99.90;;;;;;5037468;28;20021;-91
2021/11/12 08:13:52;;;;;;;19.08;12.25;;;6.00;99.90;;;;;;5044489;28;20033;-91
2021/11/12 08:19:09;;;;;;;21.23;10.82;;;6.10;99.90;;;;;;5047654;28;20048;-91
2021/11/12 08:27:07;;;;;;;15.65;9.13;;;6.20;99.90;;;;;;5031600;28;20025;-91
2021/11/12 08:37:33;;;;;;;16.98;10.00;;;6.20;99.90;;;;;;5036577;28;20044;-92
2021/11/12 08:43:01;;;;;;;16.88;9.85;;;6.30;99.90;;;;;;5048225;28;20032;-91
2021/11/12 08:45:30;;;;;;;15.88;10.32;;;6.30;99.90;;;;;;5021534;28;20330;-91
2021/11/12 08:48:06;;;;;;;16.35;10.45;;;6.30;99.90;;;;;;5051724;28;20108;-91
2021/11/12 08:50:33;;;;;;;17.55;9.63;;;6.60;99.90;;;;;;5034389;28;20021;-91
2021/11/12 08:53:07;;;;;;;15.23;9.90;;;6.60;99.90;;;;;;5046014;28;20036;-92
2021/11/12 08:55:34;;;;;;;17.30;10.35;;;6.60;99.90;;;;;;5030170;28;20399;-91
2021/11/12 08:58:02;;;;;;;15.18;10.30;;;7.20;99.90;;;;;;5029125;28;20021;-91
2021/11/12 09:00:28;;;;;;;16.27;10.20;;;7.00;99.90;;;;;;5049288;28;20045;-91
2021/11/12 09:02:55;;;;;;;17.08;11.00;;;6.70;99.90;;;;;;5051026;28;20029;-92
2021/11/12 09:05:21;;;;;;;19.00;10.80;;;6.70;99.90;;;;;;5019765;28;20029;-91
2021/11/12 09:07:51;;;;;;;17.73;10.43;;;6.70;99.90;;;;;;5026585;28;20505;-92
2021/11/12 09:10:19;;;;;;;20.50;11.27;;;6.60;99.90;;;;;;5029233;28;20051;-91
2021/11/12 09:12:48;;;;;;;20.02;11.23;;;6.50;99.90;;;;;;5047308;28;20017;-92
2021/11/12 09:15:23;;;;;;;18.33;11.52;;;6.30;99.90;;;;;;5034932;28;20037;-92
2021/11/12 09:17:49;;;;;;;19.05;11.43;;;6.40;99.90;;;;;;5050761;28;20025;-91
2021/11/12 09:20:15;;;;;;;19.58;11.13;;;6.40;99.90;;;;;;5048053;28;20525;-91
2021/11/12 09:22:41;;;;;;;18.67;11.00;;;6.30;99.90;;;;;;5048609;28;20025;-92
2021/11/12 09:25:09;;;;;;;21.13;12.00;;;6.30;99.90;;;;;;5028643;28;20027;-91
2021/11/12 09:27:35;;;;;;;19.75;12.25;;;6.40;99.90;;;;;;5047682;28;20026;-92
2021/11/12 09:30:06;;;;;;;20.05;11.65;;;6.30;99.90;;;;;;5033209;28;20474;-92
2021/11/12 09:32:32;;;;;;;27.65;12.68;;;6.30;99.90;;;;;;5049013;28;20477;-91
2021/11/12 09:34:58;;;;;;;19.70;12.50;;;6.30;99.90;;;;;;5036368;28;20132;-91
2021/11/12 09:37:24;;;;;;;21.40;12.23;;;6.80;99.90;;;;;;5042648;28;20208;-91
2021/11/12 09:39:57;;;;;;;18.88;12.52;;;6.50;99.90;;;;;;5048821;28;20030;-91
2021/11/12 09:42:25;;;;;;;51.40;25.17;;;6.50;99.90;;;;;;5035409;28;20028;-91
2021/11/12 09:44:52;;;;;;;28.38;19.75;;;6.40;99.90;;;;;;5016146;28;20029;-91
2021/11/12 09:47:23;;;;;;;27.88;17.67;;;6.40;99.90;;;;;;5029364;28;20028;-91
2021/11/12 09:49:50;;;;;;;45.70;36.25;;;6.40;99.90;;;;;;5045780;28;20115;-91
2021/11/12 09:52:16;;;;;;;91.40;68.03;;;6.40;99.90;;;;;;5046119;28;20035;-91
2021/11/12 09:54:42;;;;;;;28.65;19.38;;;6.60;99.90;;;;;;5031085;28;20056;-91
2021/11/12 09:57:07;;;;;;;21.83;12.63;;;6.70;99.90;;;;;;5050875;28;20024;-92
2021/11/12 09:59:34;;;;;;;22.05;13.75;;;6.70;99.90;;;;;;5048079;28;20059;-91
2021/11/12 10:02:05;;;;;;;56.97;38.15;;;6.70;99.90;;;;;;5048320;28;20060;-92
2021/11/12 10:04:31;;;;;;;24.60;15.88;;;6.60;99.90;;;;;;5029599;28;20037;-91
2021/11/12 10:06:58;;;;;;;19.75;12.73;;;6.60;99.90;;;;;;5047539;28;20120;-91
2021/11/12 10:09:24;;;;;;;19.58;12.68;;;6.70;99.90;;;;;;5050385;28;20059;-92
2021/11/12 10:11:55;;;;;;;21.60;14.50;;;6.60;99.90;;;;;;5050734;28;20473;-92
2021/11/12 10:14:38;;;;;;;19.73;12.63;;;6.80;99.90;;;;;;5047755;28;20061;-92
2021/11/12 10:17:06;;;;;;;20.38;12.93;;;6.90;99.90;;;;;;5045713;28;20037;-92
2021/11/12 10:19:38;;;;;;;26.17;16.00;;;6.80;99.90;;;;;;5047265;28;20051;-91
2021/11/12 10:22:04;;;;;;;23.38;13.80;;;7.00;99.90;;;;;;5045513;28;20017;-91
2021/11/12 10:24:37;;;;;;;57.03;39.72;;;7.30;99.90;;;;;;5050342;28;20029;-91
2021/11/12 10:27:22;;;;;;;26.90;18.67;;;6.90;99.90;;;;;;5052010;28;20029;-91
2021/11/12 10:29:57;;;;;;;20.27;13.45;;;7.20;99.90;;;;;;5012787;28;20072;-92
2021/11/12 10:32:29;;;;;;;22.35;13.23;;;7.00;99.90;;;;;;5027169;28;20056;-91
2021/11/12 10:35:01;;;;;;;20.58;13.45;;;7.00;99.90;;;;;;5020810;28;20072;-92
2021/11/12 10:37:31;;;;;;;27.00;15.13;;;6.90;99.90;;;;;;5017945;28;20550;-91
2021/11/12 10:40:04;;;;;;;22.38;14.02;;;6.90;99.90;;;;;;5036790;28;20485;-91
2021/11/12 10:42:36;;;;;;;21.88;13.15;;;6.70;99.90;;;;;;5048158;28;20032;-92
2021/11/12 10:45:05;;;;;;;23.02;14.32;;;6.70;99.90;;;;;;5033848;28;20018;-91
2021/11/12 10:47:32;;;;;;;22.45;13.80;;;6.70;99.90;;;;;;5033007;28;20059;-91
2021/11/12 10:50:05;;;;;;;23.10;14.27;;;6.70;99.90;;;;;;5027428;28;20103;-92
2021/11/12 10:52:32;;;;;;;25.90;15.55;;;6.60;99.90;;;;;;5027763;28;20032;-92
2021/11/12 10:55:06;;;;;;;25.85;15.27;;;7.20;99.90;;;;;;5025837;28;20038;-92
2021/11/12 10:57:53;;;;;;;28.50;18.00;;;6.90;99.90;;;;;;5017168;28;20037;-91
2021/11/12 11:00:21;;;;;;;32.63;20.20;;;6.80;99.90;;;;;;5003202;28;20083;-92
2021/11/12 11:02:52;;;;;;;45.65;24.80;;;7.00;99.90;;;;;;5048860;28;20021;-91
2021/11/12 11:05:22;;;;;;;29.77;19.70;;;7.00;99.90;;;;;;5038590;28;20079;-91
2021/11/12 11:07:59;;;;;;;27.83;18.92;;;7.00;99.90;;;;;;5042151;28;20033;-91
2021/11/12 11:10:36;;;;;;;31.15;20.17;;;6.90;99.90;;;;;;5040922;28;20082;-91
2021/11/12 11:13:10;;;;;;;28.77;18.83;;;6.80;99.90;;;;;;5044896;28;20405;-92
2021/11/12 11:15:49;;;;;;;29.02;18.60;;;6.80;99.90;;;;;;5048504;28;20524;-92
2021/11/12 11:18:28;;;;;;;28.95;18.23;;;6.80;99.90;;;;;;5021703;28;20029;-92
2021/11/12 11:20:59;;;;;;;30.63;18.52;;;6.80;99.90;;;;;;5053924;28;20032;-92
2021/11/12 11:23:26;;;;;;;43.47;22.92;;;6.90;99.90;;;;;;5036987;28;20030;-92
2021/11/12 11:26:04;;;;;;;58.70;28.83;;;7.10;99.90;;;;;;5025553;28;20099;-91
2021/11/12 11:28:32;;;;;;;143.60;57.95;;;7.20;99.90;;;;;;5043904;28;20025;-91
2021/11/12 11:31:00;;;;;;;33.20;21.38;;;7.30;99.90;;;;;;5048539;28;20029;-91
2021/11/12 11:33:26;;;;;;;27.85;19.63;;;7.20;99.90;;;;;;5051280;28;20100;-92
2021/11/12 11:35:55;;;;;;;42.25;23.95;;;7.30;99.90;;;;;;5052546;28;20521;-91
2021/11/12 11:38:26;;;;;;;83.75;42.97;;;7.30;99.90;;;;;;5049798;28;20048;-91
2021/11/12 11:40:52;;;;;;;76.97;39.08;;;7.80;99.90;;;;;;5049113;28;20037;-93
2021/11/12 11:43:18;;;;;;;140.20;67.07;;;7.30;99.90;;;;;;5051071;28;20032;-90
2021/11/12 11:45:47;;;;;;;44.20;25.20;;;7.30;99.90;;;;;;5049372;28;20087;-93
2021/11/12 11:48:17;;;;;;;28.17;18.85;;;7.40;99.90;;;;;;5021320;28;20468;-93
2021/11/12 11:50:57;;;;;;;30.33;19.33;;;7.00;99.90;;;;;;5014715;28;20029;-92
2021/11/12 11:53:30;;;;;;;29.00;18.40;;;7.10;99.90;;;;;;5034366;28;20049;-92
2021/11/12 11:56:27;;;;;;;27.52;17.17;;;7.20;99.90;;;;;;5040153;28;20029;-95
2021/11/12 11:58:56;;;;;;;27.95;17.38;;;7.50;99.90;;;;;;5040268;28;20575;-90
2021/11/12 12:01:34;;;;;;;30.38;19.15;;;7.30;99.90;;;;;;5041376;28;20029;-94
2021/11/12 12:04:24;;;;;;;29.48;18.50;;;7.70;99.90;;;;;;5038659;28;20470;-94
2021/11/12 12:07:02;;;;;;;31.45;19.92;;;7.30;99.90;;;;;;5049622;28;20423;-94
2021/11/12 12:10:01;;;;;;;31.77;20.80;;;7.80;99.90;;;;;;5034330;28;20110;-90
2021/11/12 12:12:30;;;;;;;30.75;20.13;;;7.50;99.90;;;;;;5022711;28;20026;-90
2021/11/12 12:15:17;;;;;;;30.58;20.02;;;7.40;99.90;;;;;;5052318;28;20137;-91
2021/11/12 12:17:45;;;;;;;26.40;17.42;;;7.40;99.90;;;;;;5031936;28;20529;-90
2021/11/12 13:25:23;;;;;;;29.10;19.40;;;8.50;99.90;;;;;;5047896;28;20017;-92
2021/11/12 13:27:49;;;;;;;25.23;17.65;;;8.60;99.90;;;;;;5046869;28;20059;-93
2021/11/12 13:30:27;;;;;;;25.75;17.70;;;8.50;99.90;;;;;;5034800;28;20142;-93
2021/11/12 13:32:53;;;;;;;25.80;17.65;;;8.90;99.90;;;;;;5051308;28;20029;-92
2021/11/12 13:35:47;;;;;;;25.02;17.95;;;8.70;99.90;;;;;;5046896;28;20036;-92
2021/11/12 13:38:13;;;;;;;24.10;17.75;;;9.40;99.90;;;;;;5032502;28;20033;-92
2021/11/12 13:40:39;;;;;;;24.40;17.40;;;9.30;99.90;;;;;;5043882;28;20055;-93
2021/11/12 13:43:04;;;;;;;27.90;18.55;;;8.60;99.90;;;;;;5030023;28;20033;-92
2021/11/12 13:45:30;;;;;;;26.88;18.23;;;8.40;99.90;;;;;;5048134;28;20405;-92
2021/11/12 13:48:11;;;;;;;28.25;20.23;;;9.00;99.90;;;;;;5032996;28;20037;-92
2021/11/12 13:50:41;;;;;;;29.20;19.58;;;8.80;99.90;;;;;;5048968;28;20033;-92
2021/11/12 13:53:07;;;;;;;28.95;19.48;;;8.90;99.90;;;;;;5037617;28;20422;-92
2021/11/12 13:55:38;;;;;;;27.67;18.55;;;9.60;99.90;;;;;;5034628;28;20041;-91
2021/11/12 13:58:05;;;;;;;30.73;20.58;;;10.10;99.90;;;;;;5036847;28;20028;-91
2021/11/12 14:00:33;;;;;;;29.45;20.05;;;10.30;99.90;;;;;;5049135;28;20050;-91
2021/11/12 14:03:10;;;;;;;30.67;22.00;;;10.20;99.90;;;;;;5050551;28;20559;-91
2021/11/12 14:06:09;;;;;;;30.27;20.88;;;10.40;99.90;;;;;;5048609;28;20443;-91
2021/11/12 14:08:44;;;;;;;29.65;20.25;;;10.10;99.90;;;;;;5047909;28;20109;-91
2021/11/12 14:11:21;;;;;;;27.73;19.98;;;10.00;99.90;;;;;;5047274;28;20040;-91
2021/11/12 14:13:48;;;;;;;28.23;20.10;;;10.30;99.90;;;;;;5036568;28;20044;-91
2021/11/12 14:16:22;;;;;;;29.48;21.15;;;9.90;99.90;;;;;;5037787;28;20025;-92
2021/11/12 14:21:45;;;;;;;28.58;20.05;;;9.50;99.90;;;;;;5049691;28;20509;-92
2021/11/12 14:37:57;;;;;;;38.03;23.25;;;8.70;99.90;;;;;;5045525;28;20036;-92
2021/11/12 14:45:36;;;;;;;34.67;22.23;;;9.40;99.90;;;;;;5034018;28;20084;-92
2021/11/12 14:58:32;;;;;;;30.52;21.90;;;9.30;99.90;;;;;;5044863;28;20029;-92
2021/11/12 15:01:19;;;;;;;33.17;22.17;;;9.50;99.90;;;;;;5045413;28;20490;-92
2021/11/12 15:03:46;;;;;;;32.33;22.33;;;9.20;99.90;;;;;;5046595;28;20076;-91
2021/11/12 15:06:14;;;;;;;32.75;22.25;;;9.30;99.90;;;;;;5051204;28;20029;-93
2021/11/12 15:08:47;;;;;;;32.55;22.02;;;9.60;99.90;;;;;;5028369;28;20029;-92
2021/11/12 15:11:13;;;;;;;31.75;22.30;;;9.00;99.90;;;;;;5045277;28;20029;-92
2021/11/12 15:13:41;;;;;;;33.00;22.77;;;9.00;99.90;;;;;;5044738;28;20056;-92
2021/11/12 15:16:12;;;;;;;31.50;22.23;;;8.70;99.90;;;;;;5044416;28;20037;-92
2021/11/12 15:18:38;;;;;;;31.20;21.90;;;8.60;99.90;;;;;;5030517;28;20509;-91
2021/11/12 15:21:08;;;;;;;33.08;23.98;;;8.60;99.90;;;;;;5049664;28;20033;-92
2021/11/12 15:24:20;;;;;;;30.83;22.58;;;8.60;99.90;;;;;;5032838;28;20026;-92
2021/11/12 15:29:42;;;;;;;30.77;22.17;;;8.50;99.90;;;;;;5044823;28;20024;-92
2021/11/12 15:34:27;;;;;;;30.48;21.00;;;7.90;99.90;;;;;;5045027;28;20104;-92
2021/11/12 15:37:00;;;;;;;32.33;20.95;;;7.90;99.90;;;;;;5044536;28;20056;-92
2021/11/12 15:39:39;;;;;;;31.40;21.00;;;7.80;99.90;;;;;;5048230;28;20024;-92
2021/11/12 15:44:54;;;;;;;30.55;19.92;;;8.00;99.90;;;;;;5029399;28;20041;-93
2021/11/12 15:47:26;;;;;;;45.85;35.22;;;7.90;99.90;;;;;;5042071;28;20398;-92
2021/11/12 15:50:10;;;;;;;37.78;26.50;;;7.80;99.90;;;;;;5026918;28;20035;-93
2021/11/12 15:55:21;;;;;;;33.65;20.85;;;7.70;99.90;;;;;;5044191;28;20033;-93
2021/11/12 16:00:25;;;;;;;33.45;21.42;;;7.90;99.90;;;;;;5017921;28;20136;-92
2021/11/12 16:13:31;;;;;;;32.97;20.83;;;7.90;99.90;;;;;;5048377;28;20051;-93
2021/11/12 16:18:48;;;;;;;34.55;20.85;;;7.60;99.90;;;;;;5049378;28;20116;-92
2021/11/12 16:21:43;;;;;;;33.80;21.75;;;7.50;99.90;;;;;;5021570;28;20021;-93
2021/11/12 16:26:39;;;;;;;34.67;21.48;;;7.40;99.90;;;;;;5050784;28;20147;-92
2021/11/12 16:31:59;;;;;;;35.38;21.70;;;7.40;99.90;;;;;;5058939;22;20025;-93
2021/11/12 16:34:26;;;;;;;39.10;24.38;;;7.40;99.90;;;;;;5043148;28;20049;-93
2021/11/12 16:36:58;;;;;;;38.72;22.65;;;7.40;99.90;;;;;;5047673;28;20021;-92
2021/11/12 16:40:09;;;;;;;42.30;24.63;;;7.40;99.90;;;;;;5030612;28;20034;-92
2021/11/12 16:47:25;;;;;;;42.75;25.73;;;7.40;99.90;;;;;;5048833;28;20116;-92
2021/11/12 16:58:02;;;;;;;39.40;23.73;;;7.20;99.90;;;;;;5048142;28;20397;-92
2021/11/12 17:13:41;;;;;;;37.72;23.10;;;7.10;99.90;;;;;;5040618;28;20170;-92
2021/11/12 17:46:39;;;;;;;39.95;24.25;;;7.00;99.90;;;;;;5046445;28;20031;-93
2021/11/12 17:48:39;;;;;;;43.83;24.58;;;7.10;99.90;;;;;;5036136;28;20109;-93
2021/11/12 18:05:15;;;;;;;52.33;32.80;;;7.00;99.90;;;;;;4931217;29;20131;-93
2021/11/12 21:45:53;;;;;;;44.78;26.08;;;5.90;99.90;;;;;;5051823;28;20112;-94
2021/11/12 21:48:18;;;;;;;44.58;25.52;;;5.90;99.90;;;;;;5019105;28;20021;-93
2021/11/12 21:50:45;;;;;;;49.25;27.55;;;6.40;99.90;;;;;;5035304;28;20036;-93
2021/11/12 21:53:10;;;;;;;50.83;27.80;;;6.00;99.90;;;;;;5033365;28;20781;-94
2021/11/12 21:55:36;;;;;;;52.72;29.20;;;6.40;99.90;;;;;;5019146;28;20129;-94
2021/11/12 21:58:03;;;;;;;48.50;27.98;;;6.10;99.90;;;;;;5019324;28;20057;-94
2021/11/12 22:00:30;;;;;;;47.72;26.80;;;6.10;99.90;;;;;;5031757;28;20035;-92
2021/11/12 22:02:56;;;;;;;49.63;26.05;;;6.10;99.90;;;;;;5054374;28;20028;-93
2021/11/12 22:05:22;;;;;;;52.83;27.65;;;6.10;99.90;;;;;;5054990;28;20067;-90
2021/11/12 22:07:48;;;;;;;49.83;27.17;;;6.10;99.90;;;;;;5049653;28;20079;-91
2021/11/12 22:10:14;;;;;;;49.42;26.17;;;6.00;99.90;;;;;;5046655;28;20032;-92
2021/11/12 22:12:41;;;;;;;51.58;26.88;;;6.20;99.90;;;;;;5039670;28;20041;-93
2021/11/12 22:15:08;;;;;;;48.63;26.95;;;6.60;99.90;;;;;;5031056;28;20045;-95
2021/11/12 22:17:34;;;;;;;49.05;26.60;;;6.00;99.90;;;;;;5052291;28;20044;-91
2021/11/12 22:20:04;;;;;;;49.80;27.40;;;6.10;99.90;;;;;;5036283;28;20059;-95
2021/11/12 22:22:30;;;;;;;52.25;26.35;;;5.90;99.90;;;;;;5040270;28;20037;-91
2021/11/12 22:24:56;;;;;;;50.80;26.45;;;6.00;99.90;;;;;;5035457;28;20029;-92
2021/11/12 22:27:22;;;;;;;48.95;26.10;;;5.90;99.90;;;;;;5001209;28;20034;-90
2021/11/12 22:29:48;;;;;;;50.40;26.55;;;5.90;99.90;;;;;;5034748;28;20033;-94
2021/11/12 22:32:13;;;;;;;53.50;27.48;;;6.10;99.90;;;;;;5034279;28;20116;-93
2021/11/12 22:34:39;;;;;;;46.20;25.67;;;6.00;99.90;;;;;;5032719;28;20491;-92
2021/11/12 22:37:05;;;;;;;55.75;27.63;;;5.80;99.90;;;;;;5054218;28;20029;-91
2021/11/12 22:39:30;;;;;;;48.17;26.38;;;5.70;99.90;;;;;;5050014;28;20022;-89
2021/11/12 22:41:56;;;;;;;48.15;26.00;;;5.80;99.90;;;;;;5033221;28;20033;-94
2021/11/12 22:44:22;;;;;;;47.28;27.10;;;6.30;99.90;;;;;;5038815;28;20028;-93
2021/11/12 22:46:48;;;;;;;49.90;27.30;;;5.90;99.90;;;;;;5035193;28;20026;-92
2021/11/12 22:49:14;;;;;;;48.90;26.15;;;5.80;99.90;;;;;;5032037;28;20055;-91
2021/11/12 22:51:40;;;;;;;49.38;25.40;;;5.70;99.90;;;;;;5033630;28;20065;-89
2021/11/12 22:54:07;;;;;;;47.55;25.50;;;5.60;99.90;;;;;;5032946;28;20172;-91
2021/11/12 22:56:34;;;;;;;53.00;26.85;;;5.50;99.90;;;;;;5052634;28;20049;-92
2021/11/12 22:59:00;;;;;;;49.63;27.17;;;5.50;99.90;;;;;;5019305;28;20026;-91
2021/11/12 23:01:31;;;;;;;44.03;25.52;;;5.40;99.90;;;;;;5033215;28;20037;-91
2021/11/12 23:03:57;;;;;;;47.40;26.45;;;5.50;99.90;;;;;;5006950;28;20021;-93
2021/11/12 23:06:23;;;;;;;46.67;25.27;;;5.70;99.90;;;;;;5017404;28;20129;-90
2021/11/12 23:08:49;;;;;;;47.42;25.30;;;5.40;99.90;;;;;;5053502;28;20474;-92